createdAt,value
2023-05-05T00:00:48.958Z,101057.03
2023-05-05T00:03:14.694Z,101058.69
2023-05-05T00:05:41.350Z,101065.31
2023-05-05T00:08:07.046Z,101064.50
2023-05-05T00:10:32.699Z,101061.75
2023-05-05T00:12:58.339Z,101058.97
2023-05-05T00:15:24.137Z,101061.75
2023-05-05T00:17:49.818Z,101058.16
2023-05-05T00:20:15.480Z,101060.09
2023-05-05T00:22:41.146Z,101063.69
2023-05-05T00:25:07.124Z,101061.75
2023-05-05T00:27:32.780Z,101075.56
2023-05-05T00:29:58.440Z,101070.03
2023-05-05T00:32:24.117Z,101064.50
2023-05-05T00:34:49.803Z,101071.16
2023-05-05T00:37:15.821Z,101071.16
2023-05-05T00:39:41.460Z,101062.84
2023-05-05T00:42:07.125Z,101068.38
2023-05-05T00:44:38.907Z,101065.63
2023-05-05T00:47:05.055Z,101064.50
2023-05-05T00:49:31.201Z,101060.91
2023-05-05T00:51:57.068Z,101065.63
2023-05-05T00:54:22.764Z,101063.69
2023-05-05T00:56:50.032Z,101065.63
2023-05-05T00:59:16.677Z,101064.78
2023-05-05T01:01:42.524Z,101065.63
2023-05-05T01:04:08.296Z,101065.63
2023-05-05T01:07:03.124Z,101076.66
2023-05-05T01:09:38.345Z,101073.09
2023-05-05T01:12:14.450Z,101071.16
2023-05-05T01:14:44.336Z,101078.63
2023-05-05T01:17:16.772Z,101075.03
2023-05-05T01:20:22.656Z,101075.03
2023-05-05T01:22:54.004Z,101071.41
2023-05-05T01:25:30.825Z,101075.84
2023-05-05T01:28:06.654Z,101076.94
2023-05-05T01:31:12.133Z,101072.25
2023-05-05T01:33:45.545Z,101068.66
2023-05-05T01:36:21.724Z,101074.16
2023-05-05T01:38:51.123Z,101071.41
2023-05-05T01:41:18.949Z,101070.59
2023-05-05T01:43:46.625Z,101067.81
2023-05-05T01:46:13.093Z,101072.53
2023-05-05T01:48:41.057Z,101076.09
2023-05-05T01:51:08.257Z,101076.94
2023-05-05T01:53:34.744Z,101079.69
2023-05-05T01:56:01.323Z,101078.06
2023-05-05T01:58:27.915Z,101091.88
2023-05-05T02:00:55.908Z,101097.13
2023-05-05T02:03:22.367Z,101097.38
2023-05-05T02:05:50.720Z,101100.16
2023-05-05T02:08:16.774Z,101104.56
2023-05-05T02:10:45.424Z,101102.91
2023-05-05T02:13:12.264Z,101100.16
2023-05-05T02:15:38.658Z,101110.38
2023-05-05T02:18:06.732Z,101112.03
2023-05-05T02:20:32.746Z,101112.03
2023-05-05T02:22:58.665Z,101114.78
2023-05-05T02:25:30.013Z,101122.25
2023-05-05T02:27:56.681Z,101115.91
2023-05-05T02:30:23.142Z,101123.38
2023-05-05T02:32:53.181Z,101114.78
2023-05-05T02:35:22.604Z,101113.97
2023-05-05T02:37:51.288Z,101117.84
2023-05-05T02:40:19.386Z,101125.03
2023-05-05T02:42:46.202Z,101117.84
2023-05-05T02:45:14.998Z,101118.97
2023-05-05T02:47:40.714Z,101130.84
2023-05-05T02:50:07.575Z,101120.59
2023-05-05T02:52:33.978Z,101132.47
2023-05-05T02:55:00.596Z,101114.25
2023-05-05T02:57:31.345Z,101129.72
2023-05-05T03:00:06.218Z,101131.66
2023-05-05T03:02:42.753Z,101124.19
2023-05-05T03:05:12.103Z,101131.66
2023-05-05T03:07:40.699Z,101128.06
2023-05-05T03:10:09.645Z,101130.53
2023-05-05T03:12:39.309Z,101122.53
2023-05-05T03:15:05.667Z,101126.13
2023-05-05T03:17:32.171Z,101136.38
2023-05-05T03:19:58.059Z,101130.84
2023-05-05T03:22:23.811Z,101132.78
2023-05-05T03:24:50.516Z,101128.06
2023-05-05T03:27:16.563Z,101128.06
2023-05-05T03:29:42.202Z,101131.94
2023-05-05T03:32:07.983Z,101132.78
2023-05-05T03:34:36.456Z,101127.25
2023-05-05T03:37:02.011Z,101120.91
2023-05-05T03:39:27.638Z,101118.13
2023-05-05T03:41:53.324Z,101121.72
2023-05-05T03:44:18.968Z,101133.88
2023-05-05T03:46:44.730Z,101133.88
2023-05-05T03:49:10.365Z,101130.84
2023-05-05T03:51:36.438Z,101128.38
2023-05-05T03:54:02.193Z,101134.72
2023-05-05T03:56:27.876Z,101133.88
2023-05-05T03:58:53.520Z,101137.47
2023-05-05T04:01:19.192Z,101139.41
2023-05-05T04:03:45.275Z,101139.41
2023-05-05T04:06:10.979Z,101154.06
2023-05-05T04:08:36.641Z,101151.28
2023-05-05T04:11:02.306Z,101152.94
2023-05-05T04:13:28.645Z,101161.53
2023-05-05T04:15:54.634Z,101167.88
2023-05-05T04:18:20.377Z,101171.72
2023-05-05T04:20:46.438Z,101176.16
2023-05-05T04:23:12.107Z,101177.25
2023-05-05T04:25:37.972Z,101171.72
2023-05-05T04:28:03.769Z,101176.97
2023-05-05T04:30:29.435Z,101184.44
2023-05-05T04:32:55.179Z,101177.81
2023-05-05T04:35:21.333Z,101181.69
2023-05-05T04:37:47.003Z,101187.22
2023-05-05T04:40:12.641Z,101187.22
2023-05-05T04:42:38.278Z,101186.38
2023-05-05T04:45:04.278Z,101176.16
2023-05-05T04:47:29.976Z,101180.00
2023-05-05T04:49:55.641Z,101187.22
2023-05-05T04:52:21.493Z,101189.97
2023-05-05T04:54:47.690Z,101189.16
2023-05-05T04:57:13.389Z,101187.47
2023-05-05T04:59:39.113Z,101180.00
2023-05-05T05:02:05.579Z,101184.72
2023-05-05T05:04:31.270Z,101185.81
2023-05-05T05:06:59.055Z,101193.00
2023-05-05T05:09:25.010Z,101202.97
2023-05-05T05:11:50.804Z,101196.88
2023-05-05T05:14:16.449Z,101215.91
2023-05-05T05:16:42.146Z,101204.88
2023-05-05T05:19:07.820Z,101215.09
2023-05-05T05:21:33.476Z,101218.69
2023-05-05T05:23:59.112Z,101214.28
2023-05-05T05:26:24.833Z,101212.34
2023-05-05T05:28:50.483Z,101222.56
2023-05-05T05:31:16.130Z,101210.41
2023-05-05T05:33:41.787Z,101222.31
2023-05-05T05:36:07.531Z,101223.13
2023-05-05T05:38:33.188Z,101217.59
2023-05-05T05:40:58.837Z,101221.44
2023-05-05T05:43:24.464Z,101213.72
2023-05-05T05:45:51.083Z,101225.59
2023-05-05T05:48:16.731Z,101223.66
2023-05-05T05:50:42.436Z,101228.38
2023-05-05T05:53:08.103Z,101222.56
2023-05-05T05:55:33.761Z,101231.66
2023-05-05T05:57:59.489Z,101240.53
2023-05-05T06:00:25.292Z,101236.13
2023-05-05T06:02:51.040Z,101231.66
2023-05-05T06:05:16.798Z,101240.81
2023-05-05T06:07:42.459Z,101234.44
2023-05-05T06:10:25.925Z,101230.59
2023-05-05T06:12:53.452Z,101233.88
2023-05-05T06:15:19.152Z,101227.00
2023-05-05T06:17:44.900Z,101225.59
2023-05-05T06:20:12.117Z,101227.25
2023-05-05T06:22:37.766Z,101215.38
2023-05-05T06:25:03.566Z,101230.88
2023-05-05T06:27:29.238Z,101218.97
2023-05-05T06:29:54.877Z,101221.72
2023-05-05T06:32:20.580Z,101224.47
2023-05-05T06:34:46.642Z,101218.13
2023-05-05T06:37:12.275Z,101227.00
2023-05-05T06:39:37.907Z,101232.50
2023-05-05T06:42:03.550Z,101238.88
2023-05-05T06:44:30.283Z,101240.53
2023-05-05T06:46:56.100Z,101244.09
2023-05-05T06:49:21.780Z,101247.69
2023-05-05T06:51:47.758Z,101248.81
2023-05-05T06:54:13.475Z,101251.31
2023-05-05T06:56:39.220Z,101259.59
2023-05-05T06:59:04.868Z,101269.53
2023-05-05T07:01:30.503Z,101262.91
2023-05-05T07:03:56.276Z,101270.09
2023-05-05T07:06:22.046Z,101269.25
2023-05-05T07:08:47.714Z,101270.91
2023-05-05T07:11:13.489Z,101268.44
2023-05-05T07:13:39.181Z,101270.09
2023-05-05T07:16:05.147Z,101266.50
2023-05-05T07:18:30.838Z,101270.91
2023-05-05T07:20:56.542Z,101276.44
2023-05-05T07:23:22.199Z,101268.44
2023-05-05T07:25:48.028Z,101274.78
2023-05-05T07:28:13.718Z,101273.66
2023-05-05T07:30:39.403Z,101280.31
2023-05-05T07:33:05.299Z,101280.31
2023-05-05T07:35:30.991Z,101280.59
2023-05-05T07:37:56.654Z,101283.38
2023-05-05T07:40:22.379Z,101286.94
2023-05-05T07:42:48.055Z,101283.38
2023-05-05T07:45:13.753Z,101288.88
2023-05-05T07:47:39.989Z,101293.59
2023-05-05T07:50:06.243Z,101290.84
2023-05-05T07:52:45.061Z,101286.94
2023-05-05T07:55:12.198Z,101283.38
2023-05-05T07:57:38.162Z,101282.53
2023-05-05T08:00:04.640Z,101285.84
2023-05-05T08:02:30.348Z,101281.44
2023-05-05T08:04:56.187Z,101281.44
2023-05-05T08:07:21.938Z,101286.94
2023-05-05T08:09:47.613Z,101285.84
2023-05-05T08:12:14.396Z,101287.78
2023-05-05T08:14:41.705Z,101285.00
2023-05-05T08:17:07.732Z,101288.06
2023-05-05T08:19:33.441Z,101288.88
2023-05-05T08:22:01.334Z,101287.78
2023-05-05T08:24:27.268Z,101281.44
2023-05-05T08:26:54.749Z,101280.59
2023-05-05T08:29:20.891Z,101284.19
2023-05-05T08:31:46.613Z,101284.19
2023-05-05T08:34:12.302Z,101275.91
2023-05-05T08:36:38.005Z,101281.44
2023-05-05T08:39:03.931Z,101278.38
2023-05-05T08:41:30.029Z,101280.59
2023-05-05T08:43:55.783Z,101281.44
2023-05-05T08:46:21.908Z,101281.44
2023-05-05T08:48:47.904Z,101284.19
2023-05-05T08:51:17.429Z,101285.00
2023-05-05T08:53:56.842Z,101286.13
2023-05-05T08:56:26.000Z,101288.88
2023-05-05T08:58:51.915Z,101287.25
2023-05-05T09:01:17.777Z,101282.53
2023-05-05T09:03:44.565Z,101279.78
2023-05-05T09:06:10.282Z,101282.53
2023-05-05T09:08:36.850Z,101286.38
2023-05-05T09:11:02.632Z,101294.66
2023-05-05T09:13:30.000Z,101295.53
2023-05-05T09:15:55.987Z,101297.44
2023-05-05T09:18:21.732Z,101291.91
2023-05-05T09:20:47.525Z,101296.34
2023-05-05T09:23:15.802Z,101290.00
2023-05-05T09:25:42.672Z,101293.84
2023-05-05T09:28:10.226Z,101281.97
2023-05-05T09:30:36.320Z,101285.84
2023-05-05T09:33:02.096Z,101281.44
2023-05-05T09:35:28.160Z,101285.00
2023-05-05T09:37:54.129Z,101283.91
2023-05-05T09:40:20.671Z,101282.78
2023-05-05T09:42:46.547Z,101284.47
2023-05-05T09:45:25.234Z,101279.47
2023-05-05T09:47:52.012Z,101282.00
2023-05-05T09:50:21.484Z,101283.06
2023-05-05T09:52:56.434Z,101284.19
2023-05-05T09:55:23.099Z,101278.66
2023-05-05T09:57:48.962Z,101281.41
2023-05-05T10:00:15.011Z,101274.78
2023-05-05T10:02:41.103Z,101274.78
2023-05-05T10:05:13.492Z,101270.94
2023-05-05T10:07:41.014Z,101264.56
2023-05-05T10:10:09.886Z,101259.88
2023-05-05T10:12:36.857Z,101260.97
2023-05-05T10:15:05.462Z,101251.59
2023-05-05T10:17:32.258Z,101253.50
2023-05-05T10:20:00.353Z,101257.13
2023-05-05T10:22:28.819Z,101244.13
2023-05-05T10:24:57.061Z,101240.25
2023-05-05T10:27:22.960Z,101233.06
2023-05-05T10:29:56.663Z,101231.94
2023-05-05T10:32:53.245Z,101229.19
2023-05-05T10:35:23.742Z,101225.88
2023-05-05T10:37:49.859Z,101228.34
2023-05-05T10:40:17.011Z,101228.34
2023-05-05T10:42:42.933Z,101223.94
2023-05-05T10:45:08.983Z,101225.88
2023-05-05T10:47:36.049Z,101238.56
2023-05-05T10:50:08.786Z,101228.63
2023-05-05T10:52:57.862Z,101223.09
2023-05-05T10:55:35.041Z,101223.94
2023-05-05T10:58:00.879Z,101223.94
2023-05-05T11:03:20.073Z,101216.72
2023-05-05T11:06:08.497Z,101214.81
2023-05-05T11:08:35.529Z,101213.97
2023-05-05T11:11:01.730Z,101200.44
2023-05-05T11:13:27.709Z,101216.72
2023-05-05T11:15:54.689Z,101211.50
2023-05-05T11:18:43.477Z,101223.09
2023-05-05T11:21:15.943Z,101211.50
2023-05-05T11:23:46.449Z,101221.97
2023-05-05T11:26:13.634Z,101222.81
2023-05-05T11:29:00.045Z,101218.69
2023-05-05T11:31:26.084Z,101218.13
2023-05-05T11:33:52.289Z,101218.41
2023-05-05T11:36:19.381Z,101220.06
2023-05-05T11:39:07.952Z,101217.28
2023-05-05T11:41:58.953Z,101215.34
2023-05-05T11:44:33.149Z,101217.56
2023-05-05T11:49:39.414Z,101221.97
2023-05-05T11:52:06.517Z,101231.38
2023-05-05T11:54:34.042Z,101230.56
2023-05-05T11:57:04.164Z,101231.38
2023-05-05T11:59:31.099Z,101227.53
2023-05-05T12:01:57.390Z,101233.56
2023-05-05T12:04:23.432Z,101235.25
2023-05-05T12:06:49.211Z,101228.91
2023-05-05T12:09:19.234Z,101224.47
2023-05-05T12:11:48.814Z,101225.28
2023-05-05T12:14:14.500Z,101224.19
2023-05-05T12:16:40.216Z,101220.59
2023-05-05T12:19:07.152Z,101224.19
2023-05-05T12:21:33.513Z,101222.25
2023-05-05T12:23:59.218Z,101210.63
2023-05-05T12:26:26.807Z,101213.13
2023-05-05T12:28:52.839Z,101204.84
2023-05-05T12:31:18.634Z,101214.78
2023-05-05T12:33:44.658Z,101218.38
2023-05-05T12:36:11.338Z,101228.63
2023-05-05T12:38:37.756Z,101219.47
2023-05-05T12:41:03.570Z,101208.72
2023-05-05T12:43:33.599Z,101206.47
2023-05-05T12:46:04.665Z,101208.13
2023-05-05T12:48:30.838Z,101207.31
2023-05-05T12:51:15.301Z,101210.06
2023-05-05T12:53:40.955Z,101218.66
2023-05-05T12:56:27.644Z,101208.41
2023-05-05T12:58:54.759Z,101213.94
2023-05-05T13:01:20.613Z,101209.53
2023-05-05T13:03:46.333Z,101200.94
2023-05-05T13:06:20.901Z,101208.72
2023-05-05T13:08:46.662Z,101206.47
2023-05-05T13:11:12.334Z,101201.50
2023-05-05T13:13:37.982Z,101204.28
2023-05-05T13:16:04.061Z,101206.19
2023-05-05T13:18:29.758Z,101214.22
2023-05-05T13:20:55.409Z,101207.88
2023-05-05T13:23:21.054Z,101213.41
2023-05-05T13:25:46.719Z,101209.78
2023-05-05T13:28:12.930Z,101211.72
2023-05-05T13:30:38.596Z,101205.09
2023-05-05T13:33:04.314Z,101209.50
2023-05-05T13:35:29.996Z,101200.66
2023-05-05T13:37:55.861Z,101195.97
2023-05-05T13:40:22.723Z,101194.88
2023-05-05T13:42:49.477Z,101182.97
2023-05-05T13:45:16.545Z,101188.22
2023-05-05T13:47:43.634Z,101180.75
2023-05-05T13:50:09.513Z,101178.81
2023-05-05T13:52:35.153Z,101179.63
2023-05-05T13:55:00.957Z,101178.81
2023-05-05T13:57:26.756Z,101184.34
2023-05-05T13:59:52.418Z,101173.28
2023-05-05T14:02:18.065Z,101170.50
2023-05-05T14:04:43.712Z,101164.72
2023-05-05T14:07:09.363Z,101163.59
2023-05-05T14:09:35.070Z,101157.50
2023-05-05T14:12:00.839Z,101160.84
2023-05-05T14:14:26.477Z,101156.44
2023-05-05T14:16:52.202Z,101155.59
2023-05-05T14:19:17.924Z,101152.84
2023-05-05T14:21:43.580Z,101163.59
2023-05-05T14:24:09.218Z,101168.31
2023-05-05T14:26:34.950Z,101169.13
2023-05-05T14:29:00.647Z,101171.06
2023-05-05T14:31:26.420Z,101174.66
2023-05-05T14:33:52.705Z,101171.91
2023-05-05T14:36:18.353Z,101180.19
2023-05-05T14:38:44.066Z,101182.13
2023-05-05T14:41:09.864Z,101196.50
2023-05-05T14:43:36.092Z,101200.91
2023-05-05T14:46:05.699Z,101199.56
2023-05-05T14:48:32.376Z,101213.09
2023-05-05T14:50:58.024Z,101219.44
2023-05-05T14:53:23.714Z,101231.63
2023-05-05T14:55:49.366Z,101230.78
2023-05-05T14:58:16.290Z,101230.78
2023-05-05T15:00:41.937Z,101239.38
2023-05-05T15:03:07.759Z,101246.56
2023-05-05T15:05:33.471Z,101238.25
2023-05-05T15:07:59.140Z,101234.69
2023-05-05T15:10:24.827Z,101234.69
2023-05-05T15:12:50.533Z,101233.03
2023-05-05T15:15:16.217Z,101238.56
2023-05-05T15:17:42.274Z,101241.31
2023-05-05T15:20:08.229Z,101240.47
2023-05-05T15:22:33.919Z,101242.41
2023-05-05T15:24:59.695Z,101244.09
2023-05-05T15:27:25.489Z,101247.94
2023-05-05T15:29:51.242Z,101254.28
2023-05-05T15:32:16.995Z,101251.53
2023-05-05T15:34:44.011Z,101250.69
2023-05-05T15:37:09.663Z,101246.28
2023-05-05T15:39:35.297Z,101253.47
2023-05-05T15:42:02.939Z,101261.75
2023-05-05T15:44:29.125Z,101267.28
2023-05-05T15:46:54.803Z,101258.16
2023-05-05T15:49:20.487Z,101252.63
2023-05-05T15:51:47.548Z,101251.81
2023-05-05T15:54:13.618Z,101266.47
2023-05-05T15:56:39.282Z,101262.06
2023-05-05T15:59:04.972Z,101257.06
2023-05-05T16:01:32.618Z,101249.63
2023-05-05T16:04:00.386Z,101248.22
2023-05-05T16:06:26.497Z,101237.16
2023-05-05T16:08:52.502Z,101245.47
2023-05-05T16:11:20.028Z,101241.88
2023-05-05T16:13:47.533Z,101241.88
2023-05-05T16:16:13.175Z,101234.41
2023-05-05T16:18:38.824Z,101235.50
2023-05-05T16:21:04.637Z,101237.16
2023-05-05T16:23:30.299Z,101232.75
2023-05-05T16:25:55.958Z,101236.34
2023-05-05T16:28:21.620Z,101235.50
2023-05-05T16:30:47.273Z,101238.28
2023-05-05T16:33:12.960Z,101231.06
2023-05-05T16:35:38.623Z,101241.88
2023-05-05T16:38:04.280Z,101241.03
2023-05-05T16:40:29.924Z,101241.03
2023-05-05T16:42:55.561Z,101242.97
2023-05-05T16:45:21.214Z,101237.47
2023-05-05T16:47:46.887Z,101241.88
2023-05-05T16:50:12.546Z,101233.56
2023-05-05T16:52:38.212Z,101232.75
2023-05-05T16:55:04.369Z,101225.53
2023-05-05T16:57:30.821Z,101225.53
2023-05-05T16:59:56.462Z,101228.31
2023-05-05T17:02:22.145Z,101227.47
2023-05-05T17:04:48.438Z,101230.25
2023-05-05T17:07:14.077Z,101237.72
2023-05-05T17:09:39.718Z,101237.72
2023-05-05T17:12:05.520Z,101234.94
2023-05-05T17:14:32.677Z,101239.66
2023-05-05T17:16:58.339Z,101246.84
2023-05-05T17:19:23.982Z,101254.31
2023-05-05T17:21:49.625Z,101252.66
2023-05-05T17:24:15.278Z,101261.78
2023-05-05T17:26:40.958Z,101255.41
2023-05-05T17:29:06.661Z,101250.72
2023-05-05T17:31:32.360Z,101254.59
2023-05-05T17:33:58.105Z,101258.19
2023-05-05T17:36:23.761Z,101279.47
2023-05-05T17:38:49.410Z,101285.00
2023-05-05T17:41:15.664Z,101285.00
2023-05-05T17:43:41.308Z,101287.19
2023-05-05T17:46:07.010Z,101280.59
2023-05-05T17:48:32.736Z,101277.81
2023-05-05T17:50:58.413Z,101268.72
2023-05-05T17:53:24.080Z,101276.16
2023-05-05T17:55:49.728Z,101259.56
2023-05-05T17:58:15.386Z,101273.38
2023-05-05T18:00:41.038Z,101264.81
2023-05-05T18:03:06.834Z,101262.31
2023-05-05T18:05:32.557Z,101262.31
2023-05-05T18:07:59.060Z,101259.56
2023-05-05T18:10:25.036Z,101255.97
2023-05-05T18:12:50.789Z,101249.63
2023-05-05T18:15:16.479Z,101241.31
2023-05-05T18:17:42.639Z,101245.72
2023-05-05T18:20:09.415Z,101253.19
2023-05-05T18:22:35.118Z,101255.13
2023-05-05T18:25:00.759Z,101258.72
2023-05-05T18:27:27.402Z,101259.56
2023-05-05T18:29:53.328Z,101266.19
2023-05-05T18:32:19.032Z,101270.91
2023-05-05T18:34:44.697Z,101265.38
2023-05-05T18:37:10.371Z,101263.72
2023-05-05T18:39:36.020Z,101259.03
2023-05-05T18:42:02.384Z,101257.09
2023-05-05T18:44:28.325Z,101260.97
2023-05-05T18:46:54.180Z,101270.09
2023-05-05T18:49:19.847Z,101273.13
2023-05-05T18:51:45.505Z,101271.19
2023-05-05T18:54:11.330Z,101272.84
2023-05-05T18:56:36.988Z,101274.78
2023-05-05T18:59:03.864Z,101264.84
2023-05-05T19:01:30.222Z,101262.91
2023-05-05T19:03:55.898Z,101267.59
2023-05-05T19:06:21.600Z,101276.72
2023-05-05T19:08:47.279Z,101282.25
2023-05-05T19:11:14.211Z,101277.81
2023-05-05T19:13:40.235Z,101289.44
2023-05-05T19:16:06.333Z,101288.88
2023-05-05T19:18:32.428Z,101297.16
2023-05-05T19:20:58.093Z,101295.50
2023-05-05T19:23:23.780Z,101297.16
2023-05-05T19:25:52.000Z,101295.50
2023-05-05T19:28:17.937Z,101297.16
2023-05-05T19:30:45.721Z,101301.88
2023-05-05T19:33:11.565Z,101303.81
2023-05-05T19:35:37.299Z,101303.81
2023-05-05T19:38:02.974Z,101303.81
2023-05-05T19:40:28.616Z,101298.28
2023-05-05T19:42:55.147Z,101307.69
2023-05-05T19:45:20.882Z,101304.91
2023-05-05T19:47:46.717Z,101301.31
2023-05-05T19:50:14.364Z,101305.75
2023-05-05T19:52:41.051Z,101302.97
2023-05-05T19:55:09.445Z,101304.09
2023-05-05T19:57:35.233Z,101300.50
2023-05-05T20:00:00.907Z,101298.84
2023-05-05T20:02:27.602Z,101294.97
2023-05-05T20:04:53.290Z,101298.84
2023-05-05T20:07:18.991Z,101300.50
2023-05-05T20:09:45.666Z,101298.56
2023-05-05T20:12:11.459Z,101297.72
2023-05-05T20:14:37.099Z,101300.50
2023-05-05T20:17:02.826Z,101293.31
2023-05-05T20:19:28.457Z,101294.16
2023-05-05T20:21:54.103Z,101298.00
2023-05-05T20:24:19.756Z,101306.03
2023-05-05T20:26:45.450Z,101307.13
2023-05-05T20:29:11.964Z,101307.13
2023-05-05T20:31:37.749Z,101309.03
2023-05-05T20:34:03.445Z,101303.53
2023-05-05T20:36:29.110Z,101301.63
2023-05-05T20:38:54.752Z,101309.03
2023-05-05T20:41:20.432Z,101302.69
2023-05-05T20:43:46.072Z,101304.63
2023-05-05T20:46:13.115Z,101302.69
2023-05-05T20:48:42.454Z,101299.94
2023-05-05T20:51:08.750Z,101299.09
2023-05-05T20:53:34.412Z,101301.88
2023-05-05T20:56:00.180Z,101305.47
2023-05-05T20:58:26.134Z,101312.94
2023-05-05T21:00:51.822Z,101304.63
2023-05-05T21:03:17.550Z,101306.56
2023-05-05T21:05:43.865Z,101313.22
2023-05-05T21:08:09.514Z,101312.09
2023-05-05T21:10:35.862Z,101308.50
2023-05-05T21:13:02.010Z,101303.81
2023-05-05T21:15:27.709Z,101307.69
2023-05-05T21:17:53.458Z,101311.28
2023-05-05T21:20:19.395Z,101310.16
2023-05-05T21:22:45.383Z,101311.28
2023-05-05T21:25:13.797Z,101302.16
2023-05-05T21:27:39.690Z,101306.84
2023-05-05T21:30:07.742Z,101304.91
2023-05-05T21:32:35.263Z,101309.63
2023-05-05T21:35:01.073Z,101301.31
2023-05-05T21:37:26.718Z,101296.88
2023-05-05T21:39:52.504Z,101303.28
2023-05-05T21:42:18.724Z,101304.09
2023-05-05T21:44:44.375Z,101302.41
2023-05-05T21:47:10.016Z,101307.94
2023-05-05T21:49:35.673Z,101309.63
2023-05-05T21:52:01.394Z,101311.56
2023-05-05T21:54:27.063Z,101305.19
2023-05-05T21:56:52.721Z,101306.03
2023-05-05T21:59:18.378Z,101307.13
2023-05-05T22:01:44.052Z,101303.28
2023-05-05T22:04:09.709Z,101310.72
2023-05-05T22:06:35.617Z,101305.19
2023-05-05T22:09:01.269Z,101299.94
2023-05-05T22:11:26.917Z,101294.97
2023-05-05T22:13:52.561Z,101288.88
2023-05-05T22:16:18.286Z,101295.22
2023-05-05T22:18:44.012Z,101294.41
2023-05-05T22:21:09.676Z,101294.13
2023-05-05T22:23:36.366Z,101296.06
2023-05-05T22:26:03.958Z,101299.94
2023-05-05T22:28:29.778Z,101301.59
2023-05-05T22:30:55.494Z,101291.66
2023-05-05T22:33:21.348Z,101302.69
2023-05-05T22:35:46.994Z,101298.28
2023-05-05T22:38:12.673Z,101299.13
2023-05-05T22:40:38.371Z,101303.81
2023-05-05T22:43:04.104Z,101303.81
2023-05-05T22:45:29.769Z,101303.00
2023-05-05T22:47:55.537Z,101303.53
2023-05-05T22:50:21.281Z,101293.59
2023-05-05T22:52:46.943Z,101291.09
2023-05-05T22:55:13.831Z,101298.28
2023-05-05T22:57:40.208Z,101297.47
2023-05-05T23:00:07.896Z,101293.88
2023-05-05T23:02:34.229Z,101287.53
2023-05-05T23:05:00.241Z,101289.16
2023-05-05T23:07:25.913Z,101287.53
2023-05-05T23:09:51.567Z,101285.56
2023-05-05T23:12:17.281Z,101282.81
2023-05-05T23:14:42.988Z,101290.28
2023-05-05T23:17:08.700Z,101288.59
2023-05-05T23:19:34.406Z,101296.88
2023-05-05T23:22:00.410Z,101297.72
2023-05-05T23:24:27.337Z,101301.34
2023-05-05T23:26:53.017Z,101298.56
2023-05-05T23:29:19.067Z,101294.94
2023-05-05T23:31:45.014Z,101304.94
2023-05-05T23:34:11.069Z,101301.59
2023-05-05T23:36:36.738Z,101299.66
2023-05-05T23:39:02.553Z,101299.66
2023-05-05T23:41:28.222Z,101305.19
2023-05-05T23:43:53.865Z,101299.66
2023-05-05T23:46:19.864Z,101299.66
2023-05-05T23:48:45.537Z,101296.06
2023-05-05T23:51:11.197Z,101290.53
2023-05-05T23:53:36.846Z,101290.53
2023-05-05T23:56:02.513Z,101289.72
2023-05-05T23:58:28.220Z,101280.59
